sensor_id;sensor_type;location;lat;lon;timestamp;temperature;humidity
19437;DHT22;9854;50.968;4.168;2023-08-24T00:01:20;22.70;99.90
19437;DHT22;9854;50.968;4.168;2023-08-24T00:03:46;22.70;99.90
19437;DHT22;9854;50.968;4.168;2023-08-24T00:06:12;22.60;99.90
19437;DHT22;9854;50.968;4.168;2023-08-24T00:08:38;22.70;99.90
19437;DHT22;9854;50.968;4.168;2023-08-24T00:11:03;22.70;99.90
19437;DHT22;9854;50.968;4.168;2023-08-24T00:13:31;22.70;99.90
19437;DHT22;9854;50.968;4.168;2023-08-24T00:15:56;22.70;99.90
19437;DHT22;9854;50.968;4.168;2023-08-24T00:18:22;22.70;99.90
19437;DHT22;9854;50.968;4.168;2023-08-24T00:20:48;22.80;99.90
19437;DHT22;9854;50.968;4.168;2023-08-24T00:23:14;22.80;99.90
19437;DHT22;9854;50.968;4.168;2023-08-24T00:25:40;22.80;99.90
19437;DHT22;9854;50.968;4.168;2023-08-24T00:28:08;22.80;99.90
19437;DHT22;9854;50.968;4.168;2023-08-24T00:30:34;22.60;99.90
19437;DHT22;9854;50.968;4.168;2023-08-24T00:33:00;22.50;99.90
19437;DHT22;9854;50.968;4.168;2023-08-24T00:35:25;22.50;99.90
19437;DHT22;9854;50.968;4.168;2023-08-24T00:37:51;22.50;99.90
19437;DHT22;9854;50.968;4.168;2023-08-24T00:40:17;22.50;99.90
19437;DHT22;9854;50.968;4.168;2023-08-24T00:42:44;22.50;99.90
19437;DHT22;9854;50.968;4.168;2023-08-24T00:45:12;22.50;99.90
19437;DHT22;9854;50.968;4.168;2023-08-24T00:47:43;22.40;99.90
19437;DHT22;9854;50.968;4.168;2023-08-24T00:50:10;22.50;99.90
19437;DHT22;9854;50.968;4.168;2023-08-24T00:52:40;22.40;99.90
19437;DHT22;9854;50.968;4.168;2023-08-24T00:55:07;22.50;99.90
19437;DHT22;9854;50.968;4.168;2023-08-24T00:57:33;22.50;99.90
19437;DHT22;9854;50.968;4.168;2023-08-24T01:00:04;22.70;99.90
19437;DHT22;9854;50.968;4.168;2023-08-24T01:02:39;22.80;99.90
19437;DHT22;9854;50.968;4.168;2023-08-24T01:05:05;22.70;99.90
19437;DHT22;9854;50.968;4.168;2023-08-24T01:07:33;22.70;99.90
19437;DHT22;9854;50.968;4.168;2023-08-24T01:10:00;22.60;99.90
19437;DHT22;9854;50.968;4.168;2023-08-24T01:13:07;22.70;99.90
19437;DHT22;9854;50.968;4.168;2023-08-24T01:15:51;22.70;99.90
19437;DHT22;9854;50.968;4.168;2023-08-24T01:18:23;22.60;99.90
19437;DHT22;9854;50.968;4.168;2023-08-24T01:20:52;22.60;99.90
19437;DHT22;9854;50.968;4.168;2023-08-24T01:23:53;22.70;99.90
19437;DHT22;9854;50.968;4.168;2023-08-24T01:26:20;22.80;99.90
19437;DHT22;9854;50.968;4.168;2023-08-24T01:28:46;22.80;99.90
19437;DHT22;9854;50.968;4.168;2023-08-24T01:31:16;22.90;99.90
19437;DHT22;9854;50.968;4.168;2023-08-24T01:33:42;22.80;99.90
19437;DHT22;9854;50.968;4.168;2023-08-24T01:36:09;22.80;99.90
19437;DHT22;9854;50.968;4.168;2023-08-24T01:38:36;22.60;99.90
19437;DHT22;9854;50.968;4.168;2023-08-24T01:41:11;22.60;99.90
19437;DHT22;9854;50.968;4.168;2023-08-24T01:43:40;22.60;99.90
19437;DHT22;9854;50.968;4.168;2023-08-24T01:46:07;22.60;99.90
19437;DHT22;9854;50.968;4.168;2023-08-24T01:48:33;22.60;99.90
19437;DHT22;9854;50.968;4.168;2023-08-24T01:51:01;22.60;99.90
19437;DHT22;9854;50.968;4.168;2023-08-24T01:53:31;22.70;99.90
19437;DHT22;9854;50.968;4.168;2023-08-24T01:55:57;22.80;99.90
19437;DHT22;9854;50.968;4.168;2023-08-24T01:58:23;22.80;99.90
19437;DHT22;9854;50.968;4.168;2023-08-24T02:00:49;22.80;99.90
19437;DHT22;9854;50.968;4.168;2023-08-24T02:03:14;22.70;99.90
19437;DHT22;9854;50.968;4.168;2023-08-24T02:05:40;22.60;99.90
19437;DHT22;9854;50.968;4.168;2023-08-24T02:08:06;22.50;99.90
19437;DHT22;9854;50.968;4.168;2023-08-24T02:10:31;22.30;99.90
19437;DHT22;9854;50.968;4.168;2023-08-24T02:12:57;22.30;99.90
19437;DHT22;9854;50.968;4.168;2023-08-24T02:15:23;22.30;99.90
19437;DHT22;9854;50.968;4.168;2023-08-24T02:17:48;22.30;99.90
19437;DHT22;9854;50.968;4.168;2023-08-24T02:20:14;22.40;99.90
19437;DHT22;9854;50.968;4.168;2023-08-24T02:22:40;22.30;99.90
19437;DHT22;9854;50.968;4.168;2023-08-24T02:25:06;22.20;99.90
19437;DHT22;9854;50.968;4.168;2023-08-24T02:27:32;22.20;99.90
19437;DHT22;9854;50.968;4.168;2023-08-24T02:29:58;22.10;99.90
19437;DHT22;9854;50.968;4.168;2023-08-24T02:32:24;22.10;99.90
19437;DHT22;9854;50.968;4.168;2023-08-24T02:34:50;22.20;99.90
19437;DHT22;9854;50.968;4.168;2023-08-24T02:37:15;22.20;99.90
19437;DHT22;9854;50.968;4.168;2023-08-24T02:39:41;22.20;99.90
19437;DHT22;9854;50.968;4.168;2023-08-24T02:42:06;22.20;99.90
19437;DHT22;9854;50.968;4.168;2023-08-24T02:44:32;22.10;99.90
19437;DHT22;9854;50.968;4.168;2023-08-24T02:46:58;22.10;99.90
19437;DHT22;9854;50.968;4.168;2023-08-24T02:49:23;22.00;99.90
19437;DHT22;9854;50.968;4.168;2023-08-24T02:51:49;21.90;99.90
19437;DHT22;9854;50.968;4.168;2023-08-24T02:54:15;21.90;99.90
19437;DHT22;9854;50.968;4.168;2023-08-24T02:56:40;21.80;99.90
19437;DHT22;9854;50.968;4.168;2023-08-24T02:59:06;21.80;99.90
19437;DHT22;9854;50.968;4.168;2023-08-24T03:01:32;21.60;99.90
19437;DHT22;9854;50.968;4.168;2023-08-24T03:03:58;21.70;99.90
19437;DHT22;9854;50.968;4.168;2023-08-24T03:06:23;21.70;99.90
19437;DHT22;9854;50.968;4.168;2023-08-24T03:08:50;21.60;99.90
19437;DHT22;9854;50.968;4.168;2023-08-24T03:11:15;21.60;99.90
19437;DHT22;9854;50.968;4.168;2023-08-24T03:13:41;21.50;99.90
19437;DHT22;9854;50.968;4.168;2023-08-24T03:16:08;21.50;99.90
19437;DHT22;9854;50.968;4.168;2023-08-24T03:18:34;21.50;99.90
19437;DHT22;9854;50.968;4.168;2023-08-24T03:21:00;21.40;99.90
19437;DHT22;9854;50.968;4.168;2023-08-24T03:23:26;21.40;99.90
19437;DHT22;9854;50.968;4.168;2023-08-24T03:25:52;21.50;99.90
19437;DHT22;9854;50.968;4.168;2023-08-24T03:28:18;21.50;99.90
19437;DHT22;9854;50.968;4.168;2023-08-24T03:30:48;21.60;99.90
19437;DHT22;9854;50.968;4.168;2023-08-24T03:33:14;21.50;99.90
19437;DHT22;9854;50.968;4.168;2023-08-24T03:35:40;21.30;99.90
19437;DHT22;9854;50.968;4.168;2023-08-24T03:38:06;21.40;99.90
19437;DHT22;9854;50.968;4.168;2023-08-24T03:40:32;21.30;99.90
19437;DHT22;9854;50.968;4.168;2023-08-24T03:42:57;21.40;99.90
19437;DHT22;9854;50.968;4.168;2023-08-24T03:45:23;21.30;99.90
19437;DHT22;9854;50.968;4.168;2023-08-24T03:47:49;21.30;99.90
19437;DHT22;9854;50.968;4.168;2023-08-24T03:50:15;21.20;99.90
19437;DHT22;9854;50.968;4.168;2023-08-24T03:52:41;21.10;99.90
19437;DHT22;9854;50.968;4.168;2023-08-24T03:55:07;21.10;99.90
19437;DHT22;9854;50.968;4.168;2023-08-24T03:57:32;21.00;99.90
19437;DHT22;9854;50.968;4.168;2023-08-24T03:59:58;21.00;99.90
19437;DHT22;9854;50.968;4.168;2023-08-24T04:02:24;21.00;99.90
19437;DHT22;9854;50.968;4.168;2023-08-24T04:04:50;21.20;99.90
19437;DHT22;9854;50.968;4.168;2023-08-24T04:07:16;21.40;99.90
19437;DHT22;9854;50.968;4.168;2023-08-24T04:09:41;21.50;99.90
19437;DHT22;9854;50.968;4.168;2023-08-24T04:12:07;21.40;99.90
19437;DHT22;9854;50.968;4.168;2023-08-24T04:14:33;21.20;99.90
19437;DHT22;9854;50.968;4.168;2023-08-24T04:16:59;21.20;99.90
19437;DHT22;9854;50.968;4.168;2023-08-24T04:19:24;21.30;99.90
19437;DHT22;9854;50.968;4.168;2023-08-24T04:21:50;21.40;99.90
19437;DHT22;9854;50.968;4.168;2023-08-24T04:24:16;21.60;99.90
19437;DHT22;9854;50.968;4.168;2023-08-24T04:26:41;21.40;99.90
19437;DHT22;9854;50.968;4.168;2023-08-24T04:29:07;21.10;99.90
19437;DHT22;9854;50.968;4.168;2023-08-24T04:31:33;21.00;99.90
19437;DHT22;9854;50.968;4.168;2023-08-24T04:33:58;21.10;99.90
19437;DHT22;9854;50.968;4.168;2023-08-24T04:36:24;21.10;99.90
19437;DHT22;9854;50.968;4.168;2023-08-24T04:38:49;21.00;99.90
19437;DHT22;9854;50.968;4.168;2023-08-24T04:41:15;20.80;99.90
19437;DHT22;9854;50.968;4.168;2023-08-24T04:43:41;20.70;99.90
19437;DHT22;9854;50.968;4.168;2023-08-24T04:46:06;20.60;99.90
19437;DHT22;9854;50.968;4.168;2023-08-24T04:48:32;20.70;99.90
19437;DHT22;9854;50.968;4.168;2023-08-24T04:51:00;20.70;99.90
19437;DHT22;9854;50.968;4.168;2023-08-24T04:53:26;20.60;99.90
19437;DHT22;9854;50.968;4.168;2023-08-24T04:55:52;20.60;99.90
19437;DHT22;9854;50.968;4.168;2023-08-24T04:58:18;20.50;99.90
19437;DHT22;9854;50.968;4.168;2023-08-24T05:00:44;20.50;99.90
19437;DHT22;9854;50.968;4.168;2023-08-24T05:03:09;20.50;99.90
19437;DHT22;9854;50.968;4.168;2023-08-24T05:05:36;20.50;99.90
19437;DHT22;9854;50.968;4.168;2023-08-24T05:08:03;20.40;99.90
19437;DHT22;9854;50.968;4.168;2023-08-24T05:10:32;20.50;99.90
19437;DHT22;9854;50.968;4.168;2023-08-24T05:12:58;20.60;99.90
19437;DHT22;9854;50.968;4.168;2023-08-24T05:15:23;20.50;99.90
19437;DHT22;9854;50.968;4.168;2023-08-24T05:17:49;20.40;99.90
19437;DHT22;9854;50.968;4.168;2023-08-24T05:20:16;20.40;99.90
19437;DHT22;9854;50.968;4.168;2023-08-24T05:22:43;20.40;99.90
19437;DHT22;9854;50.968;4.168;2023-08-24T05:25:09;20.40;99.90
19437;DHT22;9854;50.968;4.168;2023-08-24T05:27:34;20.40;99.90
19437;DHT22;9854;50.968;4.168;2023-08-24T05:30:00;20.50;99.90
19437;DHT22;9854;50.968;4.168;2023-08-24T05:32:26;20.40;99.90
19437;DHT22;9854;50.968;4.168;2023-08-24T05:34:51;20.40;99.90
19437;DHT22;9854;50.968;4.168;2023-08-24T05:37:17;20.50;99.90
19437;DHT22;9854;50.968;4.168;2023-08-24T05:39:42;20.50;99.90
19437;DHT22;9854;50.968;4.168;2023-08-24T05:42:08;20.60;99.90
19437;DHT22;9854;50.968;4.168;2023-08-24T05:44:34;20.70;99.90
19437;DHT22;9854;50.968;4.168;2023-08-24T05:47:00;20.70;99.90
19437;DHT22;9854;50.968;4.168;2023-08-24T05:49:26;20.70;99.90
19437;DHT22;9854;50.968;4.168;2023-08-24T05:51:52;20.80;99.90
19437;DHT22;9854;50.968;4.168;2023-08-24T05:54:18;20.80;99.90
19437;DHT22;9854;50.968;4.168;2023-08-24T05:56:47;20.80;99.90
19437;DHT22;9854;50.968;4.168;2023-08-24T05:59:14;20.80;99.90
19437;DHT22;9854;50.968;4.168;2023-08-24T06:01:39;20.90;99.90
19437;DHT22;9854;50.968;4.168;2023-08-24T06:04:07;21.00;99.90
19437;DHT22;9854;50.968;4.168;2023-08-24T06:06:32;21.00;99.90
19437;DHT22;9854;50.968;4.168;2023-08-24T06:08:58;21.00;99.90
19437;DHT22;9854;50.968;4.168;2023-08-24T06:11:23;21.00;99.90
19437;DHT22;9854;50.968;4.168;2023-08-24T06:13:49;21.10;99.90
19437;DHT22;9854;50.968;4.168;2023-08-24T06:16:17;21.20;99.90
19437;DHT22;9854;50.968;4.168;2023-08-24T06:18:43;21.70;99.90
19437;DHT22;9854;50.968;4.168;2023-08-24T06:21:09;21.70;99.90
19437;DHT22;9854;50.968;4.168;2023-08-24T06:23:35;21.70;99.90
19437;DHT22;9854;50.968;4.168;2023-08-24T06:26:00;21.80;99.90
19437;DHT22;9854;50.968;4.168;2023-08-24T06:28:27;21.80;99.90
19437;DHT22;9854;50.968;4.168;2023-08-24T06:30:52;22.00;99.90
19437;DHT22;9854;50.968;4.168;2023-08-24T06:33:20;22.10;99.90
19437;DHT22;9854;50.968;4.168;2023-08-24T06:35:46;22.20;99.90
19437;DHT22;9854;50.968;4.168;2023-08-24T06:38:11;22.40;99.90
19437;DHT22;9854;50.968;4.168;2023-08-24T06:40:37;22.30;99.90
19437;DHT22;9854;50.968;4.168;2023-08-24T06:43:03;22.40;99.90
19437;DHT22;9854;50.968;4.168;2023-08-24T06:45:29;22.40;99.90
19437;DHT22;9854;50.968;4.168;2023-08-24T06:47:55;22.50;99.90
19437;DHT22;9854;50.968;4.168;2023-08-24T06:50:20;22.70;99.90
19437;DHT22;9854;50.968;4.168;2023-08-24T06:52:46;22.80;99.90
19437;DHT22;9854;50.968;4.168;2023-08-24T06:55:12;22.80;99.90
19437;DHT22;9854;50.968;4.168;2023-08-24T06:57:38;23.00;99.90
19437;DHT22;9854;50.968;4.168;2023-08-24T07:00:04;23.20;99.90
19437;DHT22;9854;50.968;4.168;2023-08-24T07:02:35;23.20;99.90
19437;DHT22;9854;50.968;4.168;2023-08-24T07:05:03;23.40;99.90
19437;DHT22;9854;50.968;4.168;2023-08-24T07:07:34;23.60;99.90
19437;DHT22;9854;50.968;4.168;2023-08-24T07:10:00;23.60;99.90
19437;DHT22;9854;50.968;4.168;2023-08-24T07:12:25;23.80;99.90
19437;DHT22;9854;50.968;4.168;2023-08-24T07:14:51;23.80;99.90
19437;DHT22;9854;50.968;4.168;2023-08-24T07:17:17;23.90;99.90
19437;DHT22;9854;50.968;4.168;2023-08-24T07:19:43;23.90;99.90
19437;DHT22;9854;50.968;4.168;2023-08-24T07:22:09;24.20;99.90
19437;DHT22;9854;50.968;4.168;2023-08-24T07:24:34;24.20;99.90
19437;DHT22;9854;50.968;4.168;2023-08-24T07:27:02;24.20;99.90
19437;DHT22;9854;50.968;4.168;2023-08-24T07:29:30;24.20;99.90
19437;DHT22;9854;50.968;4.168;2023-08-24T07:31:56;24.20;99.90
19437;DHT22;9854;50.968;4.168;2023-08-24T07:34:22;24.20;99.90
19437;DHT22;9854;50.968;4.168;2023-08-24T07:36:49;24.20;99.90
19437;DHT22;9854;50.968;4.168;2023-08-24T07:39:15;24.20;99.90
19437;DHT22;9854;50.968;4.168;2023-08-24T07:41:41;24.30;99.90
19437;DHT22;9854;50.968;4.168;2023-08-24T07:44:08;24.30;99.90
19437;DHT22;9854;50.968;4.168;2023-08-24T07:46:33;24.20;99.90
19437;DHT22;9854;50.968;4.168;2023-08-24T07:48:59;24.20;99.90
19437;DHT22;9854;50.968;4.168;2023-08-24T07:51:25;24.10;99.90
19437;DHT22;9854;50.968;4.168;2023-08-24T07:53:52;24.20;99.90
19437;DHT22;9854;50.968;4.168;2023-08-24T07:56:18;24.20;99.90
19437;DHT22;9854;50.968;4.168;2023-08-24T07:58:45;24.40;99.90
19437;DHT22;9854;50.968;4.168;2023-08-24T08:01:11;24.40;99.90
19437;DHT22;9854;50.968;4.168;2023-08-24T08:03:37;24.30;99.90
19437;DHT22;9854;50.968;4.168;2023-08-24T08:06:03;24.30;99.90
19437;DHT22;9854;50.968;4.168;2023-08-24T08:08:30;24.30;99.90
19437;DHT22;9854;50.968;4.168;2023-08-24T08:11:02;24.40;99.90
19437;DHT22;9854;50.968;4.168;2023-08-24T08:13:29;24.40;99.90
19437;DHT22;9854;50.968;4.168;2023-08-24T08:16:04;24.40;99.90
19437;DHT22;9854;50.968;4.168;2023-08-24T08:18:31;24.40;99.90
19437;DHT22;9854;50.968;4.168;2023-08-24T08:20:56;24.40;99.90
19437;DHT22;9854;50.968;4.168;2023-08-24T08:23:22;24.60;99.90
19437;DHT22;9854;50.968;4.168;2023-08-24T08:25:48;24.80;99.90
19437;DHT22;9854;50.968;4.168;2023-08-24T08:28:14;24.70;99.90
19437;DHT22;9854;50.968;4.168;2023-08-24T08:30:39;24.70;99.90
19437;DHT22;9854;50.968;4.168;2023-08-24T08:33:05;24.70;99.90
19437;DHT22;9854;50.968;4.168;2023-08-24T08:35:31;24.60;99.90
19437;DHT22;9854;50.968;4.168;2023-08-24T08:37:56;24.70;99.90
19437;DHT22;9854;50.968;4.168;2023-08-24T08:40:25;24.70;99.90
19437;DHT22;9854;50.968;4.168;2023-08-24T08:42:58;24.80;99.90
19437;DHT22;9854;50.968;4.168;2023-08-24T08:45:28;24.70;99.90
19437;DHT22;9854;50.968;4.168;2023-08-24T08:48:01;24.70;99.90
19437;DHT22;9854;50.968;4.168;2023-08-24T08:50:29;24.80;99.90
19437;DHT22;9854;50.968;4.168;2023-08-24T08:52:57;24.70;99.90
19437;DHT22;9854;50.968;4.168;2023-08-24T08:55:24;24.60;99.90
19437;DHT22;9854;50.968;4.168;2023-08-24T08:57:53;24.60;99.90
19437;DHT22;9854;50.968;4.168;2023-08-24T09:00:24;24.70;99.90
19437;DHT22;9854;50.968;4.168;2023-08-24T09:02:52;24.70;99.90
19437;DHT22;9854;50.968;4.168;2023-08-24T09:05:18;24.70;99.90
19437;DHT22;9854;50.968;4.168;2023-08-24T09:07:46;24.50;99.90
19437;DHT22;9854;50.968;4.168;2023-08-24T09:10:13;24.40;99.90
19437;DHT22;9854;50.968;4.168;2023-08-24T09:12:39;24.30;99.90
19437;DHT22;9854;50.968;4.168;2023-08-24T09:15:05;24.00;99.90
19437;DHT22;9854;50.968;4.168;2023-08-24T09:17:32;23.90;99.90
19437;DHT22;9854;50.968;4.168;2023-08-24T09:19:59;23.90;99.90
19437;DHT22;9854;50.968;4.168;2023-08-24T09:22:25;23.60;99.90
19437;DHT22;9854;50.968;4.168;2023-08-24T09:24:51;23.30;99.90
19437;DHT22;9854;50.968;4.168;2023-08-24T09:27:18;23.20;99.90
19437;DHT22;9854;50.968;4.168;2023-08-24T09:29:48;22.90;99.90
19437;DHT22;9854;50.968;4.168;2023-08-24T09:32:15;22.60;99.90
19437;DHT22;9854;50.968;4.168;2023-08-24T09:34:41;22.40;99.90
19437;DHT22;9854;50.968;4.168;2023-08-24T09:37:14;22.20;99.90
19437;DHT22;9854;50.968;4.168;2023-08-24T09:39:41;21.80;99.90
19437;DHT22;9854;50.968;4.168;2023-08-24T09:42:07;21.90;99.90
19437;DHT22;9854;50.968;4.168;2023-08-24T09:44:32;21.70;99.90
19437;DHT22;9854;50.968;4.168;2023-08-24T09:46:58;21.60;99.90
19437;DHT22;9854;50.968;4.168;2023-08-24T09:49:24;21.50;99.90
19437;DHT22;9854;50.968;4.168;2023-08-24T09:51:56;21.40;99.90
19437;DHT22;9854;50.968;4.168;2023-08-24T09:54:26;21.50;99.90
19437;DHT22;9854;50.968;4.168;2023-08-24T09:56:55;21.60;99.90
19437;DHT22;9854;50.968;4.168;2023-08-24T09:59:22;21.60;99.90
19437;DHT22;9854;50.968;4.168;2023-08-24T10:01:50;21.60;99.90
19437;DHT22;9854;50.968;4.168;2023-08-24T10:04:36;21.60;99.90
19437;DHT22;9854;50.968;4.168;2023-08-24T10:07:08;21.60;99.90
19437;DHT22;9854;50.968;4.168;2023-08-24T10:09:50;21.60;99.90
19437;DHT22;9854;50.968;4.168;2023-08-24T10:12:20;21.70;99.90
19437;DHT22;9854;50.968;4.168;2023-08-24T10:14:56;21.90;99.90
19437;DHT22;9854;50.968;4.168;2023-08-24T10:17:24;21.90;99.90
19437;DHT22;9854;50.968;4.168;2023-08-24T10:19:51;21.80;99.90
19437;DHT22;9854;50.968;4.168;2023-08-24T10:22:19;21.90;99.90
19437;DHT22;9854;50.968;4.168;2023-08-24T10:24:47;22.10;99.90
19437;DHT22;9854;50.968;4.168;2023-08-24T10:27:14;22.10;99.90
19437;DHT22;9854;50.968;4.168;2023-08-24T10:29:40;22.10;99.90
19437;DHT22;9854;50.968;4.168;2023-08-24T10:32:06;22.20;99.90
19437;DHT22;9854;50.968;4.168;2023-08-24T10:34:32;22.40;99.90
19437;DHT22;9854;50.968;4.168;2023-08-24T10:37:09;22.60;99.90
19437;DHT22;9854;50.968;4.168;2023-08-24T10:39:37;22.90;99.90
19437;DHT22;9854;50.968;4.168;2023-08-24T10:42:04;23.10;99.90
19437;DHT22;9854;50.968;4.168;2023-08-24T10:44:37;23.30;99.90
19437;DHT22;9854;50.968;4.168;2023-08-24T10:47:19;23.40;99.90
19437;DHT22;9854;50.968;4.168;2023-08-24T10:52:31;24.00;99.90
19437;DHT22;9854;50.968;4.168;2023-08-24T10:55:04;24.40;99.90
19437;DHT22;9854;50.968;4.168;2023-08-24T10:57:39;24.70;99.90
19437;DHT22;9854;50.968;4.168;2023-08-24T11:00:11;24.90;99.90
19437;DHT22;9854;50.968;4.168;2023-08-24T11:02:45;25.00;99.90
19437;DHT22;9854;50.968;4.168;2023-08-24T11:05:37;25.20;99.90
19437;DHT22;9854;50.968;4.168;2023-08-24T11:08:04;25.30;99.90
19437;DHT22;9854;50.968;4.168;2023-08-24T11:13:12;24.90;99.90
19437;DHT22;9854;50.968;4.168;2023-08-24T11:18:24;25.00;99.90
19437;DHT22;9854;50.968;4.168;2023-08-24T11:23:24;25.10;99.90
19437;DHT22;9854;50.968;4.168;2023-08-24T11:25:52;25.30;99.90
19437;DHT22;9854;50.968;4.168;2023-08-24T11:28:28;25.40;99.90
19437;DHT22;9854;50.968;4.168;2023-08-24T11:30:56;25.40;99.90
19437;DHT22;9854;50.968;4.168;2023-08-24T11:33:31;25.40;99.90
19437;DHT22;9854;50.968;4.168;2023-08-24T11:35:59;25.20;99.90
19437;DHT22;9854;50.968;4.168;2023-08-24T11:38:25;25.10;99.90
19437;DHT22;9854;50.968;4.168;2023-08-24T11:40:51;25.00;99.90
19437;DHT22;9854;50.968;4.168;2023-08-24T11:43:24;25.00;99.90
19437;DHT22;9854;50.968;4.168;2023-08-24T11:45:51;24.70;99.90
19437;DHT22;9854;50.968;4.168;2023-08-24T11:48:16;24.60;99.90
19437;DHT22;9854;50.968;4.168;2023-08-24T11:50:42;24.90;99.90
19437;DHT22;9854;50.968;4.168;2023-08-24T11:53:08;24.90;99.90
19437;DHT22;9854;50.968;4.168;2023-08-24T11:55:33;24.90;99.90
19437;DHT22;9854;50.968;4.168;2023-08-24T11:58:00;24.70;99.90
19437;DHT22;9854;50.968;4.168;2023-08-24T12:00:26;24.40;99.90
19437;DHT22;9854;50.968;4.168;2023-08-24T12:02:52;24.60;99.90
19437;DHT22;9854;50.968;4.168;2023-08-24T12:05:25;24.40;99.90
19437;DHT22;9854;50.968;4.168;2023-08-24T12:07:52;24.40;99.90
19437;DHT22;9854;50.968;4.168;2023-08-24T12:10:19;24.40;99.90
19437;DHT22;9854;50.968;4.168;2023-08-24T12:12:44;24.40;99.90
19437;DHT22;9854;50.968;4.168;2023-08-24T12:15:18;24.50;99.90
19437;DHT22;9854;50.968;4.168;2023-08-24T12:17:46;24.50;99.90
19437;DHT22;9854;50.968;4.168;2023-08-24T12:20:20;24.40;99.90
19437;DHT22;9854;50.968;4.168;2023-08-24T12:22:54;24.40;99.90
19437;DHT22;9854;50.968;4.168;2023-08-24T12:25:23;24.10;99.90
19437;DHT22;9854;50.968;4.168;2023-08-24T12:27:53;24.30;99.90
19437;DHT22;9854;50.968;4.168;2023-08-24T12:30:19;24.40;99.90
19437;DHT22;9854;50.968;4.168;2023-08-24T12:32:47;24.40;99.90
19437;DHT22;9854;50.968;4.168;2023-08-24T12:35:16;24.50;99.90
19437;DHT22;9854;50.968;4.168;2023-08-24T12:37:42;24.80;99.90
19437;DHT22;9854;50.968;4.168;2023-08-24T12:40:08;24.70;99.90
19437;DHT22;9854;50.968;4.168;2023-08-24T12:42:34;24.80;99.90
19437;DHT22;9854;50.968;4.168;2023-08-24T12:45:00;24.60;99.90
19437;DHT22;9854;50.968;4.168;2023-08-24T12:47:26;24.50;99.90
19437;DHT22;9854;50.968;4.168;2023-08-24T12:49:51;24.50;99.90
19437;DHT22;9854;50.968;4.168;2023-08-24T12:52:18;24.30;99.90
19437;DHT22;9854;50.968;4.168;2023-08-24T12:54:44;24.30;99.90
19437;DHT22;9854;50.968;4.168;2023-08-24T12:57:09;24.10;99.90
19437;DHT22;9854;50.968;4.168;2023-08-24T12:59:35;24.10;99.90
19437;DHT22;9854;50.968;4.168;2023-08-24T13:02:01;24.10;99.90
19437;DHT22;9854;50.968;4.168;2023-08-24T13:04:26;24.00;99.90
19437;DHT22;9854;50.968;4.168;2023-08-24T13:06:55;23.90;99.90
19437;DHT22;9854;50.968;4.168;2023-08-24T13:09:21;23.90;99.90
19437;DHT22;9854;50.968;4.168;2023-08-24T13:11:48;23.90;99.90
19437;DHT22;9854;50.968;4.168;2023-08-24T13:14:14;23.90;99.90
19437;DHT22;9854;50.968;4.168;2023-08-24T13:16:40;24.00;99.90
19437;DHT22;9854;50.968;4.168;2023-08-24T13:19:05;23.90;99.90
19437;DHT22;9854;50.968;4.168;2023-08-24T13:21:31;23.90;99.90
19437;DHT22;9854;50.968;4.168;2023-08-24T13:23:56;23.90;99.90
19437;DHT22;9854;50.968;4.168;2023-08-24T13:26:22;24.00;99.90
19437;DHT22;9854;50.968;4.168;2023-08-24T13:28:51;24.00;99.90
19437;DHT22;9854;50.968;4.168;2023-08-24T13:31:17;24.00;99.90
19437;DHT22;9854;50.968;4.168;2023-08-24T13:33:44;24.30;99.90
19437;DHT22;9854;50.968;4.168;2023-08-24T13:36:10;24.40;99.90
19437;DHT22;9854;50.968;4.168;2023-08-24T13:38:36;24.60;99.90
19437;DHT22;9854;50.968;4.168;2023-08-24T13:41:02;24.80;99.90
19437;DHT22;9854;50.968;4.168;2023-08-24T13:43:29;24.90;99.90
19437;DHT22;9854;50.968;4.168;2023-08-24T13:45:54;24.70;99.90
19437;DHT22;9854;50.968;4.168;2023-08-24T13:48:20;24.60;99.90
19437;DHT22;9854;50.968;4.168;2023-08-24T13:50:50;24.70;99.90
19437;DHT22;9854;50.968;4.168;2023-08-24T13:53:17;24.50;99.90
19437;DHT22;9854;50.968;4.168;2023-08-24T13:55:43;24.80;99.90
19437;DHT22;9854;50.968;4.168;2023-08-24T13:58:09;24.90;99.90
19437;DHT22;9854;50.968;4.168;2023-08-24T14:00:34;24.80;99.90
19437;DHT22;9854;50.968;4.168;2023-08-24T14:03:00;24.70;99.90
19437;DHT22;9854;50.968;4.168;2023-08-24T14:05:25;25.00;99.90
19437;DHT22;9854;50.968;4.168;2023-08-24T14:07:51;24.90;99.90
19437;DHT22;9854;50.968;4.168;2023-08-24T14:10:18;24.70;99.90
19437;DHT22;9854;50.968;4.168;2023-08-24T14:12:44;24.60;99.90
19437;DHT22;9854;50.968;4.168;2023-08-24T14:15:10;24.70;99.90
19437;DHT22;9854;50.968;4.168;2023-08-24T14:17:36;24.70;99.90
19437;DHT22;9854;50.968;4.168;2023-08-24T14:20:02;24.50;99.90
19437;DHT22;9854;50.968;4.168;2023-08-24T14:22:29;24.50;99.90
19437;DHT22;9854;50.968;4.168;2023-08-24T14:24:55;24.70;99.90
19437;DHT22;9854;50.968;4.168;2023-08-24T14:27:21;24.90;99.90
19437;DHT22;9854;50.968;4.168;2023-08-24T14:29:46;24.70;99.90
19437;DHT22;9854;50.968;4.168;2023-08-24T14:32:12;24.80;99.90
19437;DHT22;9854;50.968;4.168;2023-08-24T14:34:38;25.00;99.90
19437;DHT22;9854;50.968;4.168;2023-08-24T14:37:03;25.00;99.90
19437;DHT22;9854;50.968;4.168;2023-08-24T14:39:29;25.00;99.90
19437;DHT22;9854;50.968;4.168;2023-08-24T14:41:55;24.60;99.90
19437;DHT22;9854;50.968;4.168;2023-08-24T14:44:20;24.50;99.90
19437;DHT22;9854;50.968;4.168;2023-08-24T14:46:46;24.70;99.90
19437;DHT22;9854;50.968;4.168;2023-08-24T14:49:12;24.70;99.90
19437;DHT22;9854;50.968;4.168;2023-08-24T14:51:38;24.70;99.90
19437;DHT22;9854;50.968;4.168;2023-08-24T14:54:03;24.60;99.90
19437;DHT22;9854;50.968;4.168;2023-08-24T14:56:29;24.60;99.90
19437;DHT22;9854;50.968;4.168;2023-08-24T14:58:54;24.40;99.90
19437;DHT22;9854;50.968;4.168;2023-08-24T15:01:21;24.30;99.90
19437;DHT22;9854;50.968;4.168;2023-08-24T15:03:46;24.30;99.90
19437;DHT22;9854;50.968;4.168;2023-08-24T15:06:12;24.40;99.90
19437;DHT22;9854;50.968;4.168;2023-08-24T15:08:38;24.30;99.90
19437;DHT22;9854;50.968;4.168;2023-08-24T15:11:03;24.50;99.90
19437;DHT22;9854;50.968;4.168;2023-08-24T15:13:30;24.70;99.90
19437;DHT22;9854;50.968;4.168;2023-08-24T15:15:57;24.90;99.90
19437;DHT22;9854;50.968;4.168;2023-08-24T15:18:23;25.20;99.90
19437;DHT22;9854;50.968;4.168;2023-08-24T15:20:49;25.50;99.90
19437;DHT22;9854;50.968;4.168;2023-08-24T15:23:41;25.20;99.90
19437;DHT22;9854;50.968;4.168;2023-08-24T15:26:07;25.30;99.90
19437;DHT22;9854;50.968;4.168;2023-08-24T15:29:23;25.30;99.90
19437;DHT22;9854;50.968;4.168;2023-08-24T15:31:24;25.40;99.90
19437;DHT22;9854;50.968;4.168;2023-08-24T15:33:49;25.70;99.90
19437;DHT22;9854;50.968;4.168;2023-08-24T15:36:15;26.10;99.90
19437;DHT22;9854;50.968;4.168;2023-08-24T15:38:41;26.50;99.90
19437;DHT22;9854;50.968;4.168;2023-08-24T15:41:06;26.70;99.90
19437;DHT22;9854;50.968;4.168;2023-08-24T15:43:32;27.30;99.90
19437;DHT22;9854;50.968;4.168;2023-08-24T15:45:57;27.60;99.90
19437;DHT22;9854;50.968;4.168;2023-08-24T15:48:24;28.00;99.90
19437;DHT22;9854;50.968;4.168;2023-08-24T15:50:49;28.80;99.90
19437;DHT22;9854;50.968;4.168;2023-08-24T15:53:15;29.30;99.90
19437;DHT22;9854;50.968;4.168;2023-08-24T15:55:41;29.40;99.90